sensor_id;sensor_type;location;lat;lon;timestamp;P1;durP1;ratioP1;P2;durP2;ratioP2
20431;SDS011;10375;49.136;10.366;2023-09-07T00:00:58;5.07;;;4.38;;
20431;SDS011;10375;49.136;10.366;2023-09-07T00:03:27;6.13;;;4.10;;
20431;SDS011;10375;49.136;10.366;2023-09-07T00:05:55;5.28;;;4.38;;
20431;SDS011;10375;49.136;10.366;2023-09-07T00:08:23;7.25;;;4.07;;
20431;SDS011;10375;49.136;10.366;2023-09-07T00:10:52;5.03;;;4.07;;
20431;SDS011;10375;49.136;10.366;2023-09-07T00:13:20;5.72;;;4.50;;
20431;SDS011;10375;49.136;10.366;2023-09-07T00:15:48;6.85;;;4.57;;
20431;SDS011;10375;49.136;10.366;2023-09-07T00:18:15;4.65;;;3.33;;
20431;SDS011;10375;49.136;10.366;2023-09-07T00:20:45;6.90;;;4.60;;
20431;SDS011;10375;49.136;10.366;2023-09-07T00:23:13;6.72;;;3.95;;
20431;SDS011;10375;49.136;10.366;2023-09-07T00:25:40;9.85;;;4.13;;
20431;SDS011;10375;49.136;10.366;2023-09-07T00:28:07;5.63;;;4.32;;
20431;SDS011;10375;49.136;10.366;2023-09-07T00:30:35;5.07;;;4.22;;
20431;SDS011;10375;49.136;10.366;2023-09-07T00:33:03;8.00;;;3.97;;
20431;SDS011;10375;49.136;10.366;2023-09-07T00:35:30;4.40;;;3.92;;
20431;SDS011;10375;49.136;10.366;2023-09-07T00:37:58;5.13;;;3.85;;
20431;SDS011;10375;49.136;10.366;2023-09-07T00:40:29;8.68;;;4.78;;
20431;SDS011;10375;49.136;10.366;2023-09-07T00:42:58;6.15;;;4.25;;
20431;SDS011;10375;49.136;10.366;2023-09-07T00:45:25;7.00;;;4.50;;
20431;SDS011;10375;49.136;10.366;2023-09-07T00:47:53;9.48;;;4.50;;
20431;SDS011;10375;49.136;10.366;2023-09-07T00:50:21;8.80;;;4.30;;
20431;SDS011;10375;49.136;10.366;2023-09-07T00:52:49;8.93;;;4.55;;
20431;SDS011;10375;49.136;10.366;2023-09-07T00:55:17;5.30;;;4.18;;
20431;SDS011;10375;49.136;10.366;2023-09-07T00:57:44;7.28;;;4.90;;
20431;SDS011;10375;49.136;10.366;2023-09-07T01:00:12;10.45;;;5.68;;
20431;SDS011;10375;49.136;10.366;2023-09-07T01:02:40;7.63;;;4.75;;
20431;SDS011;10375;49.136;10.366;2023-09-07T01:05:11;7.90;;;4.95;;
20431;SDS011;10375;49.136;10.366;2023-09-07T01:07:51;8.88;;;4.90;;
20431;SDS011;10375;49.136;10.366;2023-09-07T01:10:25;7.43;;;4.85;;
20431;SDS011;10375;49.136;10.366;2023-09-07T01:12:52;6.97;;;4.75;;
20431;SDS011;10375;49.136;10.366;2023-09-07T01:15:20;6.53;;;4.65;;
20431;SDS011;10375;49.136;10.366;2023-09-07T01:17:47;12.57;;;4.72;;
20431;SDS011;10375;49.136;10.366;2023-09-07T01:20:15;6.18;;;4.78;;
20431;SDS011;10375;49.136;10.366;2023-09-07T01:22:44;10.65;;;4.57;;
20431;SDS011;10375;49.136;10.366;2023-09-07T01:25:15;8.43;;;4.80;;
20431;SDS011;10375;49.136;10.366;2023-09-07T01:27:42;6.25;;;4.82;;
20431;SDS011;10375;49.136;10.366;2023-09-07T01:30:11;6.15;;;4.63;;
20431;SDS011;10375;49.136;10.366;2023-09-07T01:32:40;16.30;;;4.85;;
20431;SDS011;10375;49.136;10.366;2023-09-07T01:35:08;6.00;;;5.07;;
20431;SDS011;10375;49.136;10.366;2023-09-07T01:37:38;10.70;;;5.00;;
20431;SDS011;10375;49.136;10.366;2023-09-07T01:40:05;7.70;;;4.88;;
20431;SDS011;10375;49.136;10.366;2023-09-07T01:42:34;9.52;;;5.03;;
20431;SDS011;10375;49.136;10.366;2023-09-07T01:45:01;8.30;;;4.25;;
20431;SDS011;10375;49.136;10.366;2023-09-07T01:47:28;8.77;;;5.15;;
20431;SDS011;10375;49.136;10.366;2023-09-07T01:49:56;11.35;;;4.85;;
20431;SDS011;10375;49.136;10.366;2023-09-07T01:52:24;6.22;;;4.85;;
20431;SDS011;10375;49.136;10.366;2023-09-07T01:54:52;7.97;;;5.07;;
20431;SDS011;10375;49.136;10.366;2023-09-07T01:57:23;5.53;;;4.32;;
20431;SDS011;10375;49.136;10.366;2023-09-07T01:59:51;7.20;;;5.03;;
20431;SDS011;10375;49.136;10.366;2023-09-07T02:02:19;6.75;;;5.05;;
20431;SDS011;10375;49.136;10.366;2023-09-07T02:04:46;11.05;;;5.72;;
20431;SDS011;10375;49.136;10.366;2023-09-07T02:07:14;6.65;;;4.78;;
20431;SDS011;10375;49.136;10.366;2023-09-07T02:09:41;5.70;;;4.93;;
20431;SDS011;10375;49.136;10.366;2023-09-07T02:12:09;5.65;;;4.72;;
20431;SDS011;10375;49.136;10.366;2023-09-07T02:14:37;9.35;;;5.15;;
20431;SDS011;10375;49.136;10.366;2023-09-07T02:17:04;8.00;;;5.55;;
20431;SDS011;10375;49.136;10.366;2023-09-07T02:19:32;6.57;;;5.25;;
20431;SDS011;10375;49.136;10.366;2023-09-07T02:22:01;7.20;;;5.20;;
20431;SDS011;10375;49.136;10.366;2023-09-07T02:24:28;8.52;;;5.32;;
20431;SDS011;10375;49.136;10.366;2023-09-07T02:26:56;7.55;;;4.95;;
20431;SDS011;10375;49.136;10.366;2023-09-07T02:29:24;8.50;;;5.57;;
20431;SDS011;10375;49.136;10.366;2023-09-07T02:31:52;6.20;;;4.78;;
20431;SDS011;10375;49.136;10.366;2023-09-07T02:34:19;8.25;;;5.30;;
20431;SDS011;10375;49.136;10.366;2023-09-07T02:36:47;5.10;;;4.45;;
20431;SDS011;10375;49.136;10.366;2023-09-07T02:39:14;6.55;;;4.82;;
20431;SDS011;10375;49.136;10.366;2023-09-07T02:41:42;6.68;;;5.00;;
20431;SDS011;10375;49.136;10.366;2023-09-07T02:44:09;5.95;;;4.38;;
20431;SDS011;10375;49.136;10.366;2023-09-07T02:46:37;11.25;;;4.53;;
20431;SDS011;10375;49.136;10.366;2023-09-07T02:49:05;8.35;;;5.07;;
20431;SDS011;10375;49.136;10.366;2023-09-07T02:51:32;9.45;;;4.70;;
20431;SDS011;10375;49.136;10.366;2023-09-07T02:54:01;6.28;;;4.82;;
20431;SDS011;10375;49.136;10.366;2023-09-07T02:56:30;5.95;;;4.22;;
20431;SDS011;10375;49.136;10.366;2023-09-07T02:58:58;6.13;;;4.78;;
20431;SDS011;10375;49.136;10.366;2023-09-07T03:01:26;5.13;;;4.40;;
20431;SDS011;10375;49.136;10.366;2023-09-07T03:03:54;6.72;;;4.45;;
20431;SDS011;10375;49.136;10.366;2023-09-07T03:06:22;5.13;;;4.10;;
20431;SDS011;10375;49.136;10.366;2023-09-07T03:08:50;6.50;;;5.25;;
20431;SDS011;10375;49.136;10.366;2023-09-07T03:11:19;4.88;;;4.38;;
20431;SDS011;10375;49.136;10.366;2023-09-07T03:13:52;6.90;;;5.32;;
20431;SDS011;10375;49.136;10.366;2023-09-07T03:16:20;6.78;;;5.20;;
20431;SDS011;10375;49.136;10.366;2023-09-07T03:18:48;6.88;;;4.85;;
20431;SDS011;10375;49.136;10.366;2023-09-07T03:21:15;7.20;;;5.10;;
20431;SDS011;10375;49.136;10.366;2023-09-07T03:23:44;5.97;;;5.03;;
20431;SDS011;10375;49.136;10.366;2023-09-07T03:26:12;9.38;;;5.82;;
20431;SDS011;10375;49.136;10.366;2023-09-07T03:28:40;6.43;;;5.30;;
20431;SDS011;10375;49.136;10.366;2023-09-07T03:31:08;7.75;;;5.22;;
20431;SDS011;10375;49.136;10.366;2023-09-07T03:33:36;8.05;;;6.05;;
20431;SDS011;10375;49.136;10.366;2023-09-07T03:36:03;6.97;;;4.90;;
20431;SDS011;10375;49.136;10.366;2023-09-07T03:38:31;15.02;;;4.95;;
20431;SDS011;10375;49.136;10.366;2023-09-07T03:40:59;7.68;;;4.90;;
20431;SDS011;10375;49.136;10.366;2023-09-07T03:43:27;6.35;;;5.35;;
20431;SDS011;10375;49.136;10.366;2023-09-07T03:45:56;11.60;;;5.90;;
20431;SDS011;10375;49.136;10.366;2023-09-07T03:48:25;8.07;;;4.90;;
20431;SDS011;10375;49.136;10.366;2023-09-07T03:50:53;6.10;;;5.00;;
20431;SDS011;10375;49.136;10.366;2023-09-07T03:53:20;8.80;;;5.35;;
20431;SDS011;10375;49.136;10.366;2023-09-07T03:55:48;7.82;;;5.53;;
20431;SDS011;10375;49.136;10.366;2023-09-07T03:58:16;7.13;;;5.25;;
20431;SDS011;10375;49.136;10.366;2023-09-07T04:00:44;9.13;;;4.75;;
20431;SDS011;10375;49.136;10.366;2023-09-07T04:03:12;7.07;;;5.28;;
20431;SDS011;10375;49.136;10.366;2023-09-07T04:05:40;8.85;;;5.60;;
20431;SDS011;10375;49.136;10.366;2023-09-07T04:08:07;15.77;;;5.25;;
20431;SDS011;10375;49.136;10.366;2023-09-07T04:10:36;8.45;;;5.25;;
20431;SDS011;10375;49.136;10.366;2023-09-07T04:13:05;7.55;;;4.82;;
20431;SDS011;10375;49.136;10.366;2023-09-07T04:15:33;8.60;;;5.35;;
20431;SDS011;10375;49.136;10.366;2023-09-07T04:18:08;8.98;;;5.25;;
20431;SDS011;10375;49.136;10.366;2023-09-07T04:20:35;6.13;;;5.40;;
20431;SDS011;10375;49.136;10.366;2023-09-07T04:23:03;6.78;;;5.55;;
20431;SDS011;10375;49.136;10.366;2023-09-07T04:25:31;9.20;;;5.80;;
20431;SDS011;10375;49.136;10.366;2023-09-07T04:27:59;7.75;;;5.30;;
20431;SDS011;10375;49.136;10.366;2023-09-07T04:30:27;8.15;;;5.75;;
20431;SDS011;10375;49.136;10.366;2023-09-07T04:32:55;10.35;;;5.68;;
20431;SDS011;10375;49.136;10.366;2023-09-07T04:35:27;7.40;;;5.25;;
20431;SDS011;10375;49.136;10.366;2023-09-07T04:37:57;8.65;;;5.38;;
20431;SDS011;10375;49.136;10.366;2023-09-07T04:40:25;6.38;;;5.32;;
20431;SDS011;10375;49.136;10.366;2023-09-07T04:42:52;16.50;;;5.88;;
20431;SDS011;10375;49.136;10.366;2023-09-07T04:45:20;18.10;;;6.07;;
20431;SDS011;10375;49.136;10.366;2023-09-07T04:47:49;7.55;;;4.82;;
20431;SDS011;10375;49.136;10.366;2023-09-07T04:50:17;11.50;;;5.55;;
20431;SDS011;10375;49.136;10.366;2023-09-07T04:52:45;9.38;;;5.70;;
20431;SDS011;10375;49.136;10.366;2023-09-07T04:55:12;7.68;;;5.93;;
20431;SDS011;10375;49.136;10.366;2023-09-07T04:57:40;13.25;;;5.90;;
20431;SDS011;10375;49.136;10.366;2023-09-07T05:00:07;13.95;;;6.20;;
20431;SDS011;10375;49.136;10.366;2023-09-07T05:02:38;25.17;;;7.45;;
20431;SDS011;10375;49.136;10.366;2023-09-07T05:05:08;24.10;;;5.78;;
20431;SDS011;10375;49.136;10.366;2023-09-07T05:07:36;12.43;;;5.95;;
20431;SDS011;10375;49.136;10.366;2023-09-07T05:10:03;8.35;;;5.45;;
20431;SDS011;10375;49.136;10.366;2023-09-07T05:12:33;11.10;;;5.43;;
20431;SDS011;10375;49.136;10.366;2023-09-07T05:15:00;10.88;;;5.13;;
20431;SDS011;10375;49.136;10.366;2023-09-07T05:17:27;6.20;;;4.78;;
20431;SDS011;10375;49.136;10.366;2023-09-07T05:19:54;6.22;;;5.13;;
20431;SDS011;10375;49.136;10.366;2023-09-07T05:22:21;6.93;;;4.97;;
20431;SDS011;10375;49.136;10.366;2023-09-07T05:24:48;7.82;;;5.30;;
20431;SDS011;10375;49.136;10.366;2023-09-07T05:27:16;12.07;;;5.50;;
20431;SDS011;10375;49.136;10.366;2023-09-07T05:29:43;38.22;;;6.88;;
20431;SDS011;10375;49.136;10.366;2023-09-07T05:32:10;7.35;;;5.57;;
20431;SDS011;10375;49.136;10.366;2023-09-07T05:34:37;6.55;;;5.80;;
20431;SDS011;10375;49.136;10.366;2023-09-07T05:37:04;19.35;;;5.95;;
20431;SDS011;10375;49.136;10.366;2023-09-07T05:39:31;9.32;;;5.38;;
20431;SDS011;10375;49.136;10.366;2023-09-07T05:41:58;46.42;;;6.88;;
20431;SDS011;10375;49.136;10.366;2023-09-07T05:44:25;12.02;;;6.30;;
20431;SDS011;10375;49.136;10.366;2023-09-07T05:46:53;9.18;;;6.43;;
20431;SDS011;10375;49.136;10.366;2023-09-07T05:49:20;12.43;;;5.22;;
20431;SDS011;10375;49.136;10.366;2023-09-07T05:51:47;18.08;;;5.47;;
20431;SDS011;10375;49.136;10.366;2023-09-07T05:54:14;21.08;;;4.47;;
20431;SDS011;10375;49.136;10.366;2023-09-07T05:56:42;6.72;;;4.07;;
20431;SDS011;10375;49.136;10.366;2023-09-07T05:59:09;8.20;;;3.95;;
20431;SDS011;10375;49.136;10.366;2023-09-07T06:01:36;6.72;;;3.63;;
20431;SDS011;10375;49.136;10.366;2023-09-07T06:04:03;4.68;;;3.88;;
20431;SDS011;10375;49.136;10.366;2023-09-07T06:06:31;9.82;;;4.03;;
20431;SDS011;10375;49.136;10.366;2023-09-07T06:08:58;6.05;;;4.03;;
20431;SDS011;10375;49.136;10.366;2023-09-07T06:11:26;7.72;;;3.95;;
20431;SDS011;10375;49.136;10.366;2023-09-07T06:13:53;4.63;;;3.28;;
20431;SDS011;10375;49.136;10.366;2023-09-07T06:16:20;22.33;;;4.22;;
20431;SDS011;10375;49.136;10.366;2023-09-07T06:18:47;14.00;;;4.15;;
20431;SDS011;10375;49.136;10.366;2023-09-07T06:21:14;21.77;;;4.20;;
20431;SDS011;10375;49.136;10.366;2023-09-07T06:23:41;16.45;;;3.97;;
20431;SDS011;10375;49.136;10.366;2023-09-07T06:26:09;18.67;;;4.00;;
20431;SDS011;10375;49.136;10.366;2023-09-07T06:28:37;9.98;;;4.35;;
20431;SDS011;10375;49.136;10.366;2023-09-07T06:31:05;8.73;;;3.97;;
20431;SDS011;10375;49.136;10.366;2023-09-07T06:33:32;18.52;;;3.95;;
20431;SDS011;10375;49.136;10.366;2023-09-07T06:36:00;29.25;;;5.65;;
20431;SDS011;10375;49.136;10.366;2023-09-07T06:38:30;8.95;;;3.97;;
20431;SDS011;10375;49.136;10.366;2023-09-07T06:40:58;11.15;;;4.38;;
20431;SDS011;10375;49.136;10.366;2023-09-07T06:43:25;8.82;;;3.97;;
20431;SDS011;10375;49.136;10.366;2023-09-07T06:45:52;5.30;;;4.32;;
20431;SDS011;10375;49.136;10.366;2023-09-07T06:48:20;6.32;;;3.75;;
20431;SDS011;10375;49.136;10.366;2023-09-07T06:50:47;12.10;;;3.45;;
20431;SDS011;10375;49.136;10.366;2023-09-07T06:53:15;7.55;;;4.20;;
20431;SDS011;10375;49.136;10.366;2023-09-07T06:55:42;19.95;;;4.38;;
20431;SDS011;10375;49.136;10.366;2023-09-07T06:58:09;7.47;;;3.35;;
20431;SDS011;10375;49.136;10.366;2023-09-07T07:00:36;12.02;;;4.10;;
20431;SDS011;10375;49.136;10.366;2023-09-07T07:03:04;6.75;;;3.75;;
20431;SDS011;10375;49.136;10.366;2023-09-07T07:05:31;4.45;;;3.75;;
20431;SDS011;10375;49.136;10.366;2023-09-07T07:08:00;6.95;;;3.30;;
20431;SDS011;10375;49.136;10.366;2023-09-07T07:10:27;21.42;;;4.18;;
20431;SDS011;10375;49.136;10.366;2023-09-07T07:12:54;9.40;;;4.30;;
20431;SDS011;10375;49.136;10.366;2023-09-07T07:15:21;5.32;;;3.45;;
20431;SDS011;10375;49.136;10.366;2023-09-07T07:17:48;5.45;;;2.95;;
20431;SDS011;10375;49.136;10.366;2023-09-07T07:20:16;5.82;;;3.33;;
20431;SDS011;10375;49.136;10.366;2023-09-07T07:22:43;4.53;;;2.88;;
20431;SDS011;10375;49.136;10.366;2023-09-07T07:25:10;5.75;;;3.03;;
20431;SDS011;10375;49.136;10.366;2023-09-07T07:27:37;5.13;;;3.00;;
20431;SDS011;10375;49.136;10.366;2023-09-07T07:30:05;4.43;;;3.53;;
20431;SDS011;10375;49.136;10.366;2023-09-07T07:32:33;6.68;;;3.38;;
20431;SDS011;10375;49.136;10.366;2023-09-07T07:35:00;7.22;;;3.17;;
20431;SDS011;10375;49.136;10.366;2023-09-07T07:37:27;11.18;;;4.75;;
20431;SDS011;10375;49.136;10.366;2023-09-07T07:39:54;11.93;;;2.90;;
20431;SDS011;10375;49.136;10.366;2023-09-07T07:42:22;9.55;;;4.10;;
20431;SDS011;10375;49.136;10.366;2023-09-07T07:44:49;9.27;;;3.55;;
20431;SDS011;10375;49.136;10.366;2023-09-07T07:47:16;10.48;;;3.25;;
20431;SDS011;10375;49.136;10.366;2023-09-07T07:49:43;3.67;;;2.90;;
20431;SDS011;10375;49.136;10.366;2023-09-07T07:52:10;9.35;;;3.13;;
20431;SDS011;10375;49.136;10.366;2023-09-07T07:54:37;3.88;;;2.88;;
20431;SDS011;10375;49.136;10.366;2023-09-07T07:57:04;6.45;;;3.00;;
20431;SDS011;10375;49.136;10.366;2023-09-07T07:59:33;7.68;;;2.75;;
20431;SDS011;10375;49.136;10.366;2023-09-07T08:02:00;7.85;;;2.72;;
20431;SDS011;10375;49.136;10.366;2023-09-07T08:04:27;7.43;;;3.60;;
20431;SDS011;10375;49.136;10.366;2023-09-07T08:06:55;4.30;;;2.63;;
20431;SDS011;10375;49.136;10.366;2023-09-07T08:09:26;6.35;;;2.90;;
20431;SDS011;10375;49.136;10.366;2023-09-07T08:11:53;7.72;;;3.35;;
20431;SDS011;10375;49.136;10.366;2023-09-07T08:14:22;11.95;;;3.40;;
20431;SDS011;10375;49.136;10.366;2023-09-07T08:16:54;11.35;;;3.60;;
20431;SDS011;10375;49.136;10.366;2023-09-07T08:19:21;5.40;;;2.95;;
20431;SDS011;10375;49.136;10.366;2023-09-07T08:21:48;5.82;;;3.08;;
20431;SDS011;10375;49.136;10.366;2023-09-07T08:24:16;9.20;;;2.88;;
20431;SDS011;10375;49.136;10.366;2023-09-07T08:26:44;5.10;;;2.95;;
20431;SDS011;10375;49.136;10.366;2023-09-07T08:29:11;17.65;;;3.38;;
20431;SDS011;10375;49.136;10.366;2023-09-07T08:31:38;14.52;;;3.20;;
20431;SDS011;10375;49.136;10.366;2023-09-07T08:34:06;7.40;;;3.05;;
20431;SDS011;10375;49.136;10.366;2023-09-07T08:36:35;10.10;;;3.15;;
20431;SDS011;10375;49.136;10.366;2023-09-07T08:39:03;3.20;;;2.70;;
20431;SDS011;10375;49.136;10.366;2023-09-07T08:41:37;7.80;;;2.80;;
20431;SDS011;10375;49.136;10.366;2023-09-07T08:44:26;7.25;;;3.03;;
20431;SDS011;10375;49.136;10.366;2023-09-07T08:46:53;6.05;;;3.17;;
20431;SDS011;10375;49.136;10.366;2023-09-07T08:49:22;3.95;;;2.83;;
20431;SDS011;10375;49.136;10.366;2023-09-07T08:51:50;5.82;;;2.83;;
20431;SDS011;10375;49.136;10.366;2023-09-07T08:54:18;4.50;;;3.38;;
20431;SDS011;10375;49.136;10.366;2023-09-07T08:56:46;8.35;;;3.50;;
20431;SDS011;10375;49.136;10.366;2023-09-07T08:59:14;4.25;;;3.03;;
20431;SDS011;10375;49.136;10.366;2023-09-07T09:01:41;3.15;;;2.75;;
20431;SDS011;10375;49.136;10.366;2023-09-07T09:04:09;9.02;;;3.05;;
20431;SDS011;10375;49.136;10.366;2023-09-07T09:06:36;9.10;;;3.35;;
20431;SDS011;10375;49.136;10.366;2023-09-07T09:09:03;4.38;;;3.20;;
20431;SDS011;10375;49.136;10.366;2023-09-07T09:11:33;3.70;;;3.00;;
20431;SDS011;10375;49.136;10.366;2023-09-07T09:14:05;3.72;;;2.72;;
20431;SDS011;10375;49.136;10.366;2023-09-07T09:16:33;3.35;;;2.90;;
20431;SDS011;10375;49.136;10.366;2023-09-07T09:19:00;4.13;;;2.95;;
20431;SDS011;10375;49.136;10.366;2023-09-07T09:21:27;7.80;;;3.15;;
20431;SDS011;10375;49.136;10.366;2023-09-07T09:23:55;6.95;;;2.92;;
20431;SDS011;10375;49.136;10.366;2023-09-07T09:26:23;6.13;;;3.05;;
20431;SDS011;10375;49.136;10.366;2023-09-07T09:28:55;4.93;;;2.80;;
20431;SDS011;10375;49.136;10.366;2023-09-07T09:31:23;5.05;;;2.63;;
20431;SDS011;10375;49.136;10.366;2023-09-07T09:33:51;32.70;;;4.00;;
20431;SDS011;10375;49.136;10.366;2023-09-07T09:36:19;8.23;;;2.70;;
20431;SDS011;10375;49.136;10.366;2023-09-07T09:38:50;5.47;;;2.97;;
20431;SDS011;10375;49.136;10.366;2023-09-07T09:41:20;3.33;;;2.42;;
20431;SDS011;10375;49.136;10.366;2023-09-07T09:43:47;8.20;;;3.10;;
20431;SDS011;10375;49.136;10.366;2023-09-07T09:46:18;14.30;;;3.53;;
20431;SDS011;10375;49.136;10.366;2023-09-07T09:48:45;51.63;;;5.18;;
20431;SDS011;10375;49.136;10.366;2023-09-07T09:51:16;18.65;;;3.72;;
20431;SDS011;10375;49.136;10.366;2023-09-07T09:53:45;5.25;;;2.83;;
20431;SDS011;10375;49.136;10.366;2023-09-07T09:56:12;3.92;;;2.75;;
20431;SDS011;10375;49.136;10.366;2023-09-07T09:58:39;6.53;;;3.33;;
20431;SDS011;10375;49.136;10.366;2023-09-07T10:01:07;3.00;;;2.65;;
20431;SDS011;10375;49.136;10.366;2023-09-07T10:03:44;3.88;;;3.03;;
20431;SDS011;10375;49.136;10.366;2023-09-07T10:06:22;7.22;;;2.78;;
20431;SDS011;10375;49.136;10.366;2023-09-07T10:09:07;4.40;;;3.10;;
20431;SDS011;10375;49.136;10.366;2023-09-07T10:11:37;3.92;;;2.80;;
20431;SDS011;10375;49.136;10.366;2023-09-07T10:14:06;6.05;;;2.80;;
20431;SDS011;10375;49.136;10.366;2023-09-07T10:16:44;5.07;;;3.40;;
20431;SDS011;10375;49.136;10.366;2023-09-07T10:19:19;5.55;;;3.22;;
20431;SDS011;10375;49.136;10.366;2023-09-07T10:21:48;9.65;;;2.92;;
20431;SDS011;10375;49.136;10.366;2023-09-07T10:24:29;5.32;;;2.72;;
20431;SDS011;10375;49.136;10.366;2023-09-07T10:27:00;4.22;;;2.88;;
20431;SDS011;10375;49.136;10.366;2023-09-07T10:29:28;5.85;;;3.00;;
20431;SDS011;10375;49.136;10.366;2023-09-07T10:32:06;3.95;;;2.80;;
20431;SDS011;10375;49.136;10.366;2023-09-07T10:34:35;5.95;;;3.08;;
20431;SDS011;10375;49.136;10.366;2023-09-07T10:37:04;10.18;;;3.28;;
20431;SDS011;10375;49.136;10.366;2023-09-07T10:39:36;6.88;;;3.10;;
20431;SDS011;10375;49.136;10.366;2023-09-07T10:42:05;2.80;;;2.45;;
20431;SDS011;10375;49.136;10.366;2023-09-07T10:44:32;6.03;;;3.10;;
20431;SDS011;10375;49.136;10.366;2023-09-07T10:47:00;5.10;;;2.90;;
20431;SDS011;10375;49.136;10.366;2023-09-07T10:49:27;6.88;;;2.80;;
20431;SDS011;10375;49.136;10.366;2023-09-07T10:51:54;5.88;;;3.03;;
20431;SDS011;10375;49.136;10.366;2023-09-07T10:54:24;6.13;;;3.10;;
20431;SDS011;10375;49.136;10.366;2023-09-07T10:56:52;3.90;;;3.05;;
20431;SDS011;10375;49.136;10.366;2023-09-07T10:59:20;5.22;;;3.20;;
20431;SDS011;10375;49.136;10.366;2023-09-07T11:01:47;8.35;;;3.22;;
20431;SDS011;10375;49.136;10.366;2023-09-07T11:04:15;8.23;;;3.20;;
20431;SDS011;10375;49.136;10.366;2023-09-07T11:06:44;4.40;;;2.38;;
20431;SDS011;10375;49.136;10.366;2023-09-07T11:09:11;3.72;;;3.28;;
20431;SDS011;10375;49.136;10.366;2023-09-07T11:11:38;6.13;;;3.17;;
20431;SDS011;10375;49.136;10.366;2023-09-07T11:14:05;3.55;;;2.88;;
20431;SDS011;10375;49.136;10.366;2023-09-07T11:16:34;7.28;;;2.97;;
20431;SDS011;10375;49.136;10.366;2023-09-07T11:19:04;7.32;;;2.75;;
20431;SDS011;10375;49.136;10.366;2023-09-07T11:21:34;5.43;;;2.92;;
20431;SDS011;10375;49.136;10.366;2023-09-07T11:24:03;15.82;;;3.08;;
20431;SDS011;10375;49.136;10.366;2023-09-07T11:26:43;3.78;;;2.53;;
20431;SDS011;10375;49.136;10.366;2023-09-07T11:29:14;4.70;;;2.63;;
20431;SDS011;10375;49.136;10.366;2023-09-07T11:31:43;4.45;;;2.22;;
20431;SDS011;10375;49.136;10.366;2023-09-07T11:34:13;4.60;;;2.70;;
20431;SDS011;10375;49.136;10.366;2023-09-07T11:36:42;3.83;;;2.83;;
20431;SDS011;10375;49.136;10.366;2023-09-07T11:39:10;4.57;;;2.40;;
20431;SDS011;10375;49.136;10.366;2023-09-07T11:41:41;6.18;;;2.45;;
20431;SDS011;10375;49.136;10.366;2023-09-07T11:44:09;3.03;;;2.60;;
20431;SDS011;10375;49.136;10.366;2023-09-07T11:46:38;4.18;;;2.53;;
20431;SDS011;10375;49.136;10.366;2023-09-07T11:49:06;2.42;;;2.08;;
20431;SDS011;10375;49.136;10.366;2023-09-07T11:51:33;3.40;;;2.50;;
20431;SDS011;10375;49.136;10.366;2023-09-07T11:54:03;4.32;;;2.30;;
20431;SDS011;10375;49.136;10.366;2023-09-07T11:56:31;12.18;;;2.97;;
20431;SDS011;10375;49.136;10.366;2023-09-07T11:58:58;20.88;;;3.33;;
20431;SDS011;10375;49.136;10.366;2023-09-07T12:01:25;4.85;;;2.58;;
20431;SDS011;10375;49.136;10.366;2023-09-07T12:03:54;10.88;;;2.88;;
20431;SDS011;10375;49.136;10.366;2023-09-07T12:06:21;2.88;;;2.40;;
20431;SDS011;10375;49.136;10.366;2023-09-07T12:08:59;4.55;;;2.80;;
20431;SDS011;10375;49.136;10.366;2023-09-07T12:11:27;5.35;;;2.58;;
20431;SDS011;10375;49.136;10.366;2023-09-07T12:13:55;5.13;;;2.17;;
20431;SDS011;10375;49.136;10.366;2023-09-07T12:16:22;4.07;;;2.53;;
20431;SDS011;10375;49.136;10.366;2023-09-07T12:18:51;7.10;;;2.65;;
20431;SDS011;10375;49.136;10.366;2023-09-07T12:21:19;3.30;;;2.55;;
20431;SDS011;10375;49.136;10.366;2023-09-07T12:23:46;3.85;;;2.70;;
20431;SDS011;10375;49.136;10.366;2023-09-07T12:26:14;4.80;;;2.63;;
20431;SDS011;10375;49.136;10.366;2023-09-07T12:28:43;8.52;;;2.88;;
20431;SDS011;10375;49.136;10.366;2023-09-07T12:31:11;9.82;;;2.67;;
20431;SDS011;10375;49.136;10.366;2023-09-07T12:33:38;7.18;;;2.63;;
20431;SDS011;10375;49.136;10.366;2023-09-07T12:36:06;3.67;;;2.95;;
20431;SDS011;10375;49.136;10.366;2023-09-07T12:38:36;4.38;;;2.88;;
20431;SDS011;10375;49.136;10.366;2023-09-07T12:41:04;8.88;;;2.70;;
20431;SDS011;10375;49.136;10.366;2023-09-07T12:43:31;22.77;;;4.38;;
20431;SDS011;10375;49.136;10.366;2023-09-07T12:45:59;7.43;;;3.10;;
20431;SDS011;10375;49.136;10.366;2023-09-07T12:48:27;9.82;;;3.28;;
20431;SDS011;10375;49.136;10.366;2023-09-07T12:50:54;5.32;;;2.33;;
20431;SDS011;10375;49.136;10.366;2023-09-07T12:53:22;5.82;;;2.72;;
20431;SDS011;10375;49.136;10.366;2023-09-07T12:55:53;6.50;;;3.13;;
20431;SDS011;10375;49.136;10.366;2023-09-07T12:58:20;3.65;;;2.90;;
20431;SDS011;10375;49.136;10.366;2023-09-07T13:00:48;3.67;;;2.50;;
20431;SDS011;10375;49.136;10.366;2023-09-07T13:03:17;7.72;;;2.92;;
20431;SDS011;10375;49.136;10.366;2023-09-07T13:05:45;2.92;;;2.53;;
20431;SDS011;10375;49.136;10.366;2023-09-07T13:08:12;4.43;;;2.63;;
20431;SDS011;10375;49.136;10.366;2023-09-07T13:10:39;3.30;;;2.35;;
20431;SDS011;10375;49.136;10.366;2023-09-07T13:13:06;3.30;;;2.55;;
20431;SDS011;10375;49.136;10.366;2023-09-07T13:15:34;3.58;;;2.50;;
20431;SDS011;10375;49.136;10.366;2023-09-07T13:18:01;4.97;;;2.80;;
20431;SDS011;10375;49.136;10.366;2023-09-07T13:20:28;5.25;;;2.42;;
20431;SDS011;10375;49.136;10.366;2023-09-07T13:22:56;3.55;;;2.35;;
20431;SDS011;10375;49.136;10.366;2023-09-07T13:25:23;4.90;;;2.70;;
20431;SDS011;10375;49.136;10.366;2023-09-07T13:27:50;6.93;;;2.85;;
20431;SDS011;10375;49.136;10.366;2023-09-07T13:30:18;3.83;;;3.00;;
20431;SDS011;10375;49.136;10.366;2023-09-07T13:32:45;16.42;;;4.30;;
20431;SDS011;10375;49.136;10.366;2023-09-07T13:35:14;5.72;;;2.80;;
20431;SDS011;10375;49.136;10.366;2023-09-07T13:37:41;2.88;;;2.50;;
20431;SDS011;10375;49.136;10.366;2023-09-07T13:40:08;2.90;;;2.45;;
20431;SDS011;10375;49.136;10.366;2023-09-07T13:42:36;4.93;;;2.78;;
20431;SDS011;10375;49.136;10.366;2023-09-07T13:45:05;5.03;;;2.50;;
20431;SDS011;10375;49.136;10.366;2023-09-07T13:47:32;3.42;;;2.55;;
20431;SDS011;10375;49.136;10.366;2023-09-07T13:50:00;7.47;;;2.75;;
20431;SDS011;10375;49.136;10.366;2023-09-07T13:52:27;7.78;;;3.03;;
20431;SDS011;10375;49.136;10.366;2023-09-07T13:54:54;5.13;;;2.60;;
20431;SDS011;10375;49.136;10.366;2023-09-07T13:57:21;3.97;;;2.60;;
20431;SDS011;10375;49.136;10.366;2023-09-07T13:59:49;3.30;;;2.50;;
20431;SDS011;10375;49.136;10.366;2023-09-07T14:02:16;4.90;;;3.08;;
20431;SDS011;10375;49.136;10.366;2023-09-07T14:04:43;4.97;;;2.50;;
20431;SDS011;10375;49.136;10.366;2023-09-07T14:07:10;3.97;;;3.03;;
20431;SDS011;10375;49.136;10.366;2023-09-07T14:09:37;3.65;;;2.50;;
20431;SDS011;10375;49.136;10.366;2023-09-07T14:12:04;3.95;;;2.50;;
20431;SDS011;10375;49.136;10.366;2023-09-07T14:14:32;4.10;;;2.65;;
20431;SDS011;10375;49.136;10.366;2023-09-07T14:16:59;5.03;;;2.30;;
20431;SDS011;10375;49.136;10.366;2023-09-07T14:19:26;3.08;;;2.45;;
20431;SDS011;10375;49.136;10.366;2023-09-07T14:21:57;5.45;;;2.90;;
20431;SDS011;10375;49.136;10.366;2023-09-07T14:24:25;5.28;;;2.47;;
20431;SDS011;10375;49.136;10.366;2023-09-07T14:26:52;5.50;;;3.10;;
20431;SDS011;10375;49.136;10.366;2023-09-07T14:29:19;4.25;;;2.30;;
20431;SDS011;10375;49.136;10.366;2023-09-07T14:31:46;3.50;;;2.45;;
20431;SDS011;10375;49.136;10.366;2023-09-07T14:34:14;3.55;;;2.50;;
20431;SDS011;10375;49.136;10.366;2023-09-07T14:36:41;3.30;;;2.70;;
20431;SDS011;10375;49.136;10.366;2023-09-07T14:39:08;5.45;;;2.50;;